Time;durP1;ratioP1;P1;durP2;ratioP2;P2;SDS_P1;SDS_P2;PMS_P1;PMS_P2;Temp;Humidity;BMP_temperature;BMP_pressure;BME280_temperature;BME280_humidity;BME280_pressure;Samples;Min_cycle;Max_cycle;Signal;HPM_P1;HPM_P2
2023/06/27 00:00:18;;;;;;;21.73;6.13;;;14.50;87.90;;;;;;4976156;28;20171;-86
2023/06/27 00:02:46;;;;;;;16.53;5.40;;;14.50;88.10;;;;;;4976520;28;20552;-86
2023/06/27 00:05:12;;;;;;;19.50;7.43;;;14.50;88.00;;;;;;4976216;28;20185;-86
2023/06/27 00:07:41;;;;;;;14.27;5.67;;;14.50;87.80;;;;;;4977195;28;20631;-86
2023/06/27 00:10:08;;;;;;;14.77;6.20;;;14.50;87.70;;;;;;4976182;28;20183;-86
2023/06/27 00:12:34;;;;;;;17.93;5.87;;;14.60;87.60;;;;;;4975838;28;20694;-86
2023/06/27 00:15:00;;;;;;;13.83;5.80;;;14.50;87.80;;;;;;4977106;28;20238;-86
2023/06/27 00:17:26;;;;;;;14.63;5.27;;;14.50;88.10;;;;;;4975764;28;20262;-86
2023/06/27 00:19:57;;;;;;;17.47;6.43;;;14.50;88.30;;;;;;4975797;28;20171;-86
2023/06/27 00:22:23;;;;;;;19.87;6.03;;;14.60;88.30;;;;;;4975650;28;20182;-86
2023/06/27 00:24:49;;;;;;;15.37;5.60;;;14.50;88.20;;;;;;4977042;28;20515;-86
2023/06/27 00:27:15;;;;;;;16.23;5.33;;;14.60;88.20;;;;;;4976725;28;20185;-86
2023/06/27 00:29:40;;;;;;;18.83;5.43;;;14.50;88.20;;;;;;4976767;28;20175;-86
2023/06/27 00:32:06;;;;;;;17.00;5.07;;;14.40;88.40;;;;;;4976896;28;20553;-86
2023/06/27 00:34:32;;;;;;;19.90;4.97;;;14.30;88.60;;;;;;4976066;28;20198;-86
2023/06/27 00:36:57;;;;;;;16.37;5.67;;;14.30;88.70;;;;;;4975411;28;20174;-86
2023/06/27 00:39:23;;;;;;;17.03;4.93;;;14.30;88.80;;;;;;4975221;28;20175;-86
2023/06/27 00:41:49;;;;;;;16.90;4.10;;;14.30;88.90;;;;;;4975264;28;20175;-86
2023/06/27 00:44:14;;;;;;;18.80;5.37;;;14.50;89.00;;;;;;4975237;28;20572;-86
2023/06/27 00:46:41;;;;;;;18.43;5.53;;;14.50;88.90;;;;;;4975103;28;20171;-86
2023/06/27 00:49:09;;;;;;;15.43;5.53;;;14.50;88.80;;;;;;4976405;28;20194;-86
2023/06/27 00:51:35;;;;;;;18.50;4.80;;;14.50;88.90;;;;;;4976230;28;20198;-86
2023/06/27 00:54:00;;;;;;;23.70;5.43;;;14.50;88.90;;;;;;4976140;28;20256;-86
2023/06/27 00:56:27;;;;;;;18.37;5.17;;;14.50;89.00;;;;;;4974994;28;20665;-86
2023/06/27 00:58:57;;;;;;;18.30;4.87;;;14.50;89.10;;;;;;4976494;28;20178;-87
2023/06/27 01:01:22;;;;;;;21.63;5.37;;;14.60;89.20;;;;;;4974865;28;20183;-86
2023/06/27 01:03:48;;;;;;;19.77;5.23;;;14.60;89.00;;;;;;4974350;28;20198;-87
2023/06/27 01:06:33;;;;;;;14.83;4.80;;;14.60;89.20;;;;;;4974819;28;20206;-87
2023/06/27 01:09:16;;;;;;;14.57;5.47;;;14.60;89.30;;;;;;4974906;28;20186;-86
2023/06/27 01:12:22;;;;;;;14.90;5.20;;;14.50;89.40;;;;;;4974678;28;20225;-86
2023/06/27 01:14:52;;;;;;;16.03;5.17;;;14.30;89.70;;;;;;4939624;28;20210;-86
2023/06/27 01:17:18;;;;;;;16.33;5.60;;;14.30;89.60;;;;;;4974720;28;20174;-87
2023/06/27 01:19:45;;;;;;;24.17;6.53;;;14.30;89.50;;;;;;4974730;28;20186;-86
2023/06/27 01:22:15;;;;;;;21.07;5.90;;;14.30;89.40;;;;;;4974472;28;20183;-86
2023/06/27 01:24:43;;;;;;;17.27;5.70;;;14.30;89.40;;;;;;4975761;28;20163;-86
2023/06/27 01:27:11;;;;;;;26.83;6.10;;;14.30;89.50;;;;;;4974440;28;20185;-85
2023/06/27 01:29:40;;;;;;;13.67;5.63;;;14.20;89.50;;;;;;4974309;28;20178;-86
2023/06/27 01:32:20;;;;;;;18.63;5.70;;;14.20;89.70;;;;;;4974170;28;20199;-86
2023/06/27 01:34:55;;;;;;;14.77;5.77;;;14.20;90.10;;;;;;4974705;28;20204;-86
2023/06/27 01:37:25;;;;;;;17.63;6.37;;;14.20;90.30;;;;;;4974224;28;20827;-86
2023/06/27 01:40:00;;;;;;;23.30;6.63;;;14.20;90.40;;;;;;4975425;28;20159;-86
2023/06/27 01:42:31;;;;;;;17.30;6.13;;;14.30;90.40;;;;;;4975330;28;20158;-85
2023/06/27 01:44:57;;;;;;;17.80;6.07;;;14.30;90.30;;;;;;4975876;28;20688;-86
2023/06/27 01:47:22;;;;;;;21.47;6.53;;;14.30;90.30;;;;;;4975104;28;20264;-85
2023/06/27 01:49:48;;;;;;;13.27;5.63;;;14.20;90.30;;;;;;4975177;28;20175;-85
2023/06/27 01:52:14;;;;;;;18.17;7.57;;;14.30;90.30;;;;;;4973719;28;20678;-85
2023/06/27 01:54:43;;;;;;;13.93;5.93;;;14.30;90.30;;;;;;4974024;28;20183;-86
2023/06/27 01:57:10;;;;;;;20.03;5.87;;;14.30;90.20;;;;;;4973924;28;20608;-86
2023/06/27 01:59:35;;;;;;;20.43;6.40;;;14.20;90.10;;;;;;4975150;28;20206;-86
2023/06/27 02:02:02;;;;;;;18.67;6.07;;;14.20;90.00;;;;;;4973767;28;20213;-86
2023/06/27 02:04:27;;;;;;;14.87;5.30;;;14.10;89.90;;;;;;4973977;28;20203;-86
2023/06/27 02:06:53;;;;;;;16.47;5.30;;;14.20;89.70;;;;;;4973635;28;20237;-86
2023/06/27 02:09:18;;;;;;;16.20;5.97;;;14.20;89.70;;;;;;4973891;28;20175;-85
2023/06/27 02:11:45;;;;;;;12.90;5.47;;;14.20;89.50;;;;;;4973436;28;20206;-85
2023/06/27 02:14:11;;;;;;;18.73;7.27;;;14.20;89.30;;;;;;4973492;28;20239;-85
2023/06/27 02:16:37;;;;;;;11.47;5.00;;;14.20;89.40;;;;;;4973045;28;20201;-85
2023/06/27 02:19:02;;;;;;;16.43;5.97;;;14.20;89.50;;;;;;4973451;28;20269;-86
2023/06/27 02:21:28;;;;;;;12.70;5.37;;;14.20;89.60;;;;;;4973466;28;20178;-86
2023/06/27 02:23:53;;;;;;;16.77;5.53;;;14.20;89.80;;;;;;4973296;28;20202;-86
2023/06/27 02:26:19;;;;;;;13.90;5.27;;;14.20;90.10;;;;;;4973387;28;20189;-86
2023/06/27 02:28:44;;;;;;;12.53;5.43;;;14.30;90.20;;;;;;4974556;28;20182;-85
2023/06/27 02:31:10;;;;;;;12.53;5.70;;;14.20;90.10;;;;;;4973234;28;20293;-85
2023/06/27 02:33:35;;;;;;;12.17;5.03;;;14.20;90.10;;;;;;4973188;28;20253;-86
2023/06/27 02:36:01;;;;;;;12.37;5.20;;;14.20;90.10;;;;;;4974511;28;20166;-86
2023/06/27 02:38:27;;;;;;;16.37;5.53;;;14.20;90.00;;;;;;4974506;28;20612;-86
2023/06/27 02:40:54;;;;;;;10.60;5.47;;;14.10;89.80;;;;;;4973139;28;20225;-85
2023/06/27 02:43:19;;;;;;;13.03;4.67;;;14.00;89.80;;;;;;4973141;28;20205;-85
2023/06/27 02:45:45;;;;;;;13.23;5.20;;;13.90;89.80;;;;;;4974366;28;20562;-85
2023/06/27 02:48:10;;;;;;;7.47;4.27;;;13.80;89.70;;;;;;4974697;28;20175;-86
2023/06/27 02:50:36;;;;;;;11.47;4.60;;;13.80;89.10;;;;;;4973032;28;20214;-86
2023/06/27 02:53:01;;;;;;;10.50;4.93;;;13.90;88.70;;;;;;4972888;28;20702;-86
2023/06/27 02:55:27;;;;;;;10.37;4.73;;;13.90;88.50;;;;;;4974228;28;20547;-86
2023/06/27 02:57:52;;;;;;;10.27;4.33;;;14.00;88.60;;;;;;4974579;28;20175;-86
2023/06/27 03:00:18;;;;;;;12.10;4.87;;;13.90;88.30;;;;;;4973050;28;20192;-86
2023/06/27 03:02:44;;;;;;;12.70;4.97;;;13.90;88.20;;;;;;4972994;28;20690;-86
2023/06/27 03:05:09;;;;;;;13.93;5.00;;;13.90;88.20;;;;;;4973558;28;20631;-86
2023/06/27 03:07:35;;;;;;;7.63;4.17;;;13.80;88.20;;;;;;4974157;28;20265;-86
2023/06/27 03:10:00;;;;;;;6.93;3.97;;;13.80;88.60;;;;;;4974217;28;20183;-86
2023/06/27 03:12:26;;;;;;;14.40;4.83;;;13.80;89.00;;;;;;4972862;28;20201;-86
2023/06/27 03:14:51;;;;;;;9.13;4.10;;;13.80;89.00;;;;;;4973214;28;20669;-86
2023/06/27 03:17:17;;;;;;;11.47;5.73;;;13.80;89.30;;;;;;4974084;28;20185;-86
2023/06/27 03:19:42;;;;;;;8.83;5.00;;;13.90;89.50;;;;;;4972831;28;20179;-86
2023/06/27 03:22:08;;;;;;;9.80;5.00;;;13.90;89.50;;;;;;4973961;28;20245;-86
2023/06/27 03:24:33;;;;;;;10.00;4.20;;;13.90;89.20;;;;;;4972746;28;20559;-86
2023/06/27 03:26:59;;;;;;;9.47;4.80;;;13.90;88.80;;;;;;4975198;28;20728;-86
2023/06/27 03:29:24;;;;;;;7.50;4.90;;;13.80;88.90;;;;;;4977835;28;20183;-86
2023/06/27 03:31:50;;;;;;;9.93;4.67;;;13.90;89.10;;;;;;4976399;28;20206;-86
2023/06/27 03:34:15;;;;;;;9.63;5.00;;;13.90;89.00;;;;;;4976452;28;20195;-85
2023/06/27 03:36:41;;;;;;;14.37;4.77;;;13.90;89.10;;;;;;4976402;28;20219;-86
2023/06/27 03:39:07;;;;;;;12.23;4.67;;;13.90;89.00;;;;;;4976598;28;20253;-86
2023/06/27 03:41:32;;;;;;;14.13;5.60;;;14.00;89.30;;;;;;4976475;28;20672;-86
2023/06/27 03:43:58;;;;;;;17.37;5.50;;;14.00;89.90;;;;;;4976394;28;20289;-86
2023/06/27 03:46:24;;;;;;;13.57;5.87;;;13.90;90.20;;;;;;4976148;28;20175;-86
2023/06/27 03:48:54;;;;;;;15.67;5.77;;;13.90;90.40;;;;;;4977443;28;20175;-86
2023/06/27 03:51:19;;;;;;;12.33;5.57;;;14.00;90.40;;;;;;4976061;28;20225;-86
2023/06/27 03:53:45;;;;;;;12.03;6.20;;;14.00;90.40;;;;;;4976010;28;20706;-86
2023/06/27 03:56:11;;;;;;;13.30;6.00;;;14.00;90.30;;;;;;4976043;28;20717;-86
2023/06/27 03:58:36;;;;;;;10.83;5.80;;;14.00;90.50;;;;;;4976868;28;20274;-86
2023/06/27 04:01:02;;;;;;;12.33;5.57;;;13.90;90.50;;;;;;4977189;28;20167;-86
2023/06/27 04:03:28;;;;;;;13.30;5.47;;;13.90;90.60;;;;;;4975872;28;20226;-86
2023/06/27 04:05:54;;;;;;;10.47;5.43;;;13.90;90.40;;;;;;4977117;28;20206;-86
2023/06/27 04:08:19;;;;;;;15.33;5.50;;;14.00;90.50;;;;;;4975822;28;20186;-86
2023/06/27 04:10:44;;;;;;;12.83;6.53;;;14.00;90.40;;;;;;4975782;28;20594;-86
2023/06/27 04:13:10;;;;;;;8.67;4.70;;;14.00;90.40;;;;;;4976989;28;20282;-86
2023/06/27 04:15:39;;;;;;;11.43;4.70;;;14.00;90.30;;;;;;4975663;28;20175;-86
2023/06/27 04:18:06;;;;;;;12.30;5.77;;;14.10;90.40;;;;;;4977203;28;20167;-86
2023/06/27 04:20:31;;;;;;;14.33;5.43;;;14.10;90.50;;;;;;4976849;28;20175;-86
2023/06/27 04:22:57;;;;;;;15.80;5.87;;;14.20;90.50;;;;;;4975777;28;20203;-86
2023/06/27 04:25:22;;;;;;;11.73;5.43;;;14.20;90.60;;;;;;4976331;28;20174;-86
2023/06/27 04:27:48;;;;;;;10.00;5.53;;;14.20;90.50;;;;;;4975518;28;20186;-86
2023/06/27 04:30:13;;;;;;;13.37;5.77;;;14.30;90.60;;;;;;4976858;28;20175;-86
2023/06/27 04:32:39;;;;;;;13.27;5.93;;;14.30;90.50;;;;;;4975519;28;20573;-84
2023/06/27 04:35:05;;;;;;;12.80;6.27;;;14.30;90.70;;;;;;4975439;28;20276;-85
2023/06/27 04:37:30;;;;;;;12.67;5.70;;;14.40;90.80;;;;;;4976396;28;20647;-86
2023/06/27 04:39:56;;;;;;;15.57;5.90;;;14.50;90.80;;;;;;4974724;28;20175;-86
2023/06/27 04:42:21;;;;;;;12.53;5.80;;;14.50;90.80;;;;;;4974973;28;20182;-85
2023/06/27 04:44:47;;;;;;;16.00;6.37;;;14.50;90.70;;;;;;4976296;28;20175;-85
2023/06/27 04:47:12;;;;;;;13.38;6.38;;;14.40;90.80;;;;;;4975137;28;20201;-85
2023/06/27 04:49:38;;;;;;;17.33;6.70;;;14.40;91.10;;;;;;4975082;28;20184;-85
2023/06/27 04:52:04;;;;;;;9.67;6.27;;;14.50;91.20;;;;;;4976504;28;20698;-86
2023/06/27 04:54:29;;;;;;;14.05;7.35;;;14.50;91.30;;;;;;4974764;28;20694;-86
2023/06/27 04:56:55;;;;;;;20.67;8.13;;;14.30;91.30;;;;;;4976238;28;20666;-86
2023/06/27 04:59:20;;;;;;;18.83;8.23;;;14.30;91.40;;;;;;4974953;28;20527;-86
2023/06/27 05:01:46;;;;;;;12.57;7.30;;;14.30;91.70;;;;;;4974875;28;20201;-86
2023/06/27 05:04:12;;;;;;;14.67;7.20;;;14.40;91.90;;;;;;4974824;28;20214;-86
2023/06/27 05:06:37;;;;;;;14.43;8.53;;;14.30;91.90;;;;;;4974819;28;20558;-86
2023/06/27 05:09:03;;;;;;;12.43;8.00;;;14.30;91.90;;;;;;4974743;28;20190;-86
2023/06/27 05:11:30;;;;;;;14.53;7.87;;;14.40;92.00;;;;;;4975292;28;20209;-86
2023/06/27 05:13:56;;;;;;;15.97;8.57;;;14.30;92.10;;;;;;4974508;28;20194;-85
2023/06/27 05:16:22;;;;;;;17.37;8.00;;;14.30;92.40;;;;;;4975781;28;20581;-85
2023/06/27 05:18:48;;;;;;;15.87;8.40;;;14.30;92.60;;;;;;4974487;28;20178;-86
2023/06/27 05:21:14;;;;;;;15.13;7.97;;;14.40;92.70;;;;;;4974414;28;20673;-85
2023/06/27 05:23:39;;;;;;;16.20;7.50;;;14.40;92.80;;;;;;4974317;28;20198;-86
2023/06/27 05:26:05;;;;;;;10.53;6.37;;;14.40;92.70;;;;;;4975643;28;20619;-85
2023/06/27 05:28:30;;;;;;;13.10;6.50;;;14.30;92.20;;;;;;4975526;28;20682;-85
2023/06/27 05:30:57;;;;;;;11.97;6.37;;;14.30;92.00;;;;;;4974246;28;20245;-85
2023/06/27 05:33:22;;;;;;;16.97;6.67;;;14.50;92.10;;;;;;4975509;28;20190;-85
2023/06/27 05:35:48;;;;;;;14.47;7.23;;;14.50;92.00;;;;;;4975417;28;20217;-85
2023/06/27 05:38:14;;;;;;;11.37;6.70;;;14.60;92.00;;;;;;4974406;28;20225;-85
2023/06/27 05:40:39;;;;;;;12.63;6.67;;;14.70;92.00;;;;;;4974247;28;20214;-85
2023/06/27 05:43:05;;;;;;;10.60;6.50;;;14.80;92.10;;;;;;4974233;28;20638;-88
2023/06/27 05:45:30;;;;;;;8.57;5.50;;;14.80;91.60;;;;;;4974149;28;20237;-86
2023/06/27 05:47:56;;;;;;;15.47;6.67;;;14.90;91.60;;;;;;4975786;28;20230;-86
2023/06/27 05:50:21;;;;;;;11.33;5.60;;;15.00;91.60;;;;;;4973308;28;20313;-88
2023/06/27 05:52:47;;;;;;;8.07;5.65;;;15.00;91.10;;;;;;4974153;28;20214;-86
2023/06/27 05:55:13;;;;;;;12.77;5.20;;;15.00;90.30;;;;;;4975541;28;20170;-87
2023/06/27 05:57:38;;;;;;;12.40;5.40;;;15.10;90.20;;;;;;4974352;28;20670;-87
2023/06/27 06:00:10;;;;;;;12.10;5.40;;;15.20;89.90;;;;;;4975202;28;20178;-86
2023/06/27 06:02:37;;;;;;;6.53;4.90;;;15.30;89.80;;;;;;4975370;28;20274;-86
2023/06/27 06:05:03;;;;;;;7.10;4.55;;;15.30;89.60;;;;;;4974189;28;20270;-86
2023/06/27 06:07:28;;;;;;;10.85;4.65;;;15.50;89.60;;;;;;4974727;28;20290;-86
2023/06/27 06:09:54;;;;;;;10.52;4.82;;;15.40;89.20;;;;;;4973833;28;20195;-86
2023/06/27 06:12:19;;;;;;;13.35;5.53;;;15.50;88.60;;;;;;4975039;28;20245;-87
2023/06/27 06:14:45;;;;;;;9.27;5.35;;;15.60;88.60;;;;;;4973716;28;20174;-86
2023/06/27 06:17:10;;;;;;;15.00;5.85;;;15.70;88.40;;;;;;4975032;28;20175;-86
2023/06/27 06:19:36;;;;;;;11.93;5.70;;;15.60;87.60;;;;;;4973617;28;20559;-86
2023/06/27 06:22:01;;;;;;;10.38;5.43;;;15.70;88.20;;;;;;4973495;28;20552;-86
2023/06/27 06:24:27;;;;;;;9.80;5.65;;;15.70;88.50;;;;;;4974681;28;20209;-87
2023/06/27 06:26:53;;;;;;;10.75;5.80;;;15.80;88.60;;;;;;4973459;28;20174;-86
2023/06/27 06:29:18;;;;;;;9.18;5.38;;;15.70;87.50;;;;;;4973414;28;20186;-86
2023/06/27 06:31:44;;;;;;;9.55;4.88;;;16.00;88.20;;;;;;4973318;28;20207;-86
2023/06/27 06:34:10;;;;;;;14.45;5.53;;;16.10;87.70;;;;;;4974531;28;20696;-87
2023/06/27 06:36:35;;;;;;;13.23;5.63;;;16.00;87.50;;;;;;4974401;28;20189;-87
2023/06/27 06:39:01;;;;;;;9.38;5.63;;;15.70;87.50;;;;;;4973420;28;20676;-87
2023/06/27 06:41:27;;;;;;;10.25;6.20;;;15.70;87.90;;;;;;4974655;28;20210;-87
2023/06/27 06:43:53;;;;;;;7.97;5.97;;;15.80;88.30;;;;;;4973571;28;20210;-87
2023/06/27 06:46:18;;;;;;;13.75;6.20;;;15.90;88.10;;;;;;4973986;28;20563;-87
2023/06/27 06:48:44;;;;;;;13.52;6.65;;;16.20;88.20;;;;;;4973495;28;20277;-87
2023/06/27 06:51:09;;;;;;;10.63;5.68;;;16.10;87.70;;;;;;4974412;28;20210;-87
2023/06/27 06:53:35;;;;;;;12.15;10.95;;;16.00;87.90;;;;;;4974389;28;20265;-87
2023/06/27 06:56:00;;;;;;;16.77;12.88;;;15.80;87.80;;;;;;4973159;28;20205;-86
2023/06/27 06:58:26;;;;;;;14.98;13.52;;;15.80;87.80;;;;;;4973443;28;20181;-86
2023/06/27 07:00:51;;;;;;;14.80;13.45;;;15.70;88.00;;;;;;4974226;28;20254;-86
2023/06/27 07:03:17;;;;;;;13.80;12.40;;;15.70;88.50;;;;;;4978346;28;20619;-86
2023/06/27 07:05:42;;;;;;;15.65;13.68;;;15.70;88.60;;;;;;4977173;28;20175;-85
2023/06/27 07:08:08;;;;;;;18.52;14.55;;;15.80;87.80;;;;;;4978347;28;20178;-85
2023/06/27 07:10:34;;;;;;;14.10;12.70;;;15.90;87.70;;;;;;4976971;28;20179;-86
2023/06/27 07:13:01;;;;;;;14.82;13.35;;;16.00;87.60;;;;;;4978078;28;20285;-86
2023/06/27 07:15:27;;;;;;;13.57;12.38;;;16.00;87.40;;;;;;4976873;28;20178;-85
2023/06/27 07:17:53;;;;;;;14.90;13.57;;;16.10;87.30;;;;;;4976794;28;20181;-86
2023/06/27 07:20:25;;;;;;;12.95;9.20;;;16.10;86.60;;;;;;4976775;28;20179;-86
2023/06/27 07:22:51;;;;;;;11.07;5.80;;;16.10;86.80;;;;;;4977912;28;20202;-86
2023/06/27 07:25:17;;;;;;;8.32;5.32;;;16.20;86.60;;;;;;4976686;28;20654;-86
2023/06/27 07:27:43;;;;;;;5.43;4.82;;;16.20;85.60;;;;;;4977972;28;20552;-87
2023/06/27 07:30:09;;;;;;;7.07;5.78;;;16.20;86.00;;;;;;4976730;28;20179;-86
2023/06/27 07:32:34;;;;;;;7.00;5.40;;;16.20;85.40;;;;;;4976493;28;20296;-86
2023/06/27 07:35:00;;;;;;;13.80;5.75;;;16.10;85.20;;;;;;4977119;28;20646;-87
2023/06/27 07:37:26;;;;;;;9.23;5.20;;;16.00;85.20;;;;;;4976557;28;20650;-86
2023/06/27 07:39:51;;;;;;;8.55;5.47;;;16.30;85.20;;;;;;4976451;28;20214;-86
2023/06/27 07:42:17;;;;;;;9.93;7.18;;;16.50;84.40;;;;;;4977529;28;20181;-86
2023/06/27 07:44:43;;;;;;;15.43;6.35;;;16.80;84.70;;;;;;4976729;28;20179;-86
2023/06/27 07:47:08;;;;;;;14.68;6.32;;;17.00;84.30;;;;;;4977549;28;20189;-85
2023/06/27 07:49:34;;;;;;;11.57;6.88;;;16.60;84.90;;;;;;4977371;28;20182;-85
2023/06/27 07:52:00;;;;;;;12.60;5.30;;;16.60;85.90;;;;;;4976103;28;20205;-83
2023/06/27 07:54:27;;;;;;;15.52;6.50;;;16.40;86.20;;;;;;4977217;28;20616;-85
2023/06/27 07:56:56;;;;;;;9.75;5.18;;;16.20;86.60;;;;;;4977622;28;20163;-83
2023/06/27 07:59:22;;;;;;;10.05;5.70;;;16.20;86.30;;;;;;4977410;28;20171;-84
2023/06/27 08:01:47;;;;;;;6.80;5.47;;;16.20;85.80;;;;;;4976123;28;20575;-84
2023/06/27 08:04:15;;;;;;;8.32;6.20;;;16.60;85.10;;;;;;4975813;28;20207;-84
2023/06/27 08:06:41;;;;;;;10.75;5.88;;;16.90;84.10;;;;;;4975941;28;20681;-85
2023/06/27 08:09:12;;;;;;;11.57;5.70;;;17.10;84.30;;;;;;4977374;28;20630;-85
2023/06/27 08:11:38;;;;;;;7.40;5.97;;;17.20;84.30;;;;;;4977573;28;20642;-85
2023/06/27 08:14:03;;;;;;;12.82;6.30;;;17.00;83.90;;;;;;4974733;28;20198;-85
2023/06/27 08:16:29;;;;;;;16.92;6.63;;;16.70;83.80;;;;;;4976853;28;20182;-85
2023/06/27 08:18:54;;;;;;;11.05;5.97;;;16.50;83.70;;;;;;4977280;28;20173;-85
2023/06/27 08:21:20;;;;;;;6.97;6.28;;;16.40;84.20;;;;;;4975816;28;20201;-84
2023/06/27 08:23:45;;;;;;;6.40;5.80;;;16.50;82.80;;;;;;4976865;28;20245;-84
2023/06/27 08:26:15;;;;;;;9.40;7.57;;;16.80;82.40;;;;;;4975632;28;20265;-84
2023/06/27 08:28:41;;;;;;;8.02;6.90;;;17.10;79.90;;;;;;4975713;28;20192;-84
2023/06/27 08:31:06;;;;;;;9.68;8.88;;;17.30;79.00;;;;;;4976712;28;20194;-86
2023/06/27 08:33:32;;;;;;;9.07;8.20;;;17.50;76.10;;;;;;4976077;28;20199;-84
2023/06/27 08:35:57;;;;;;;13.13;8.98;;;17.80;76.60;;;;;;4977064;28;20171;-86
2023/06/27 08:38:23;;;;;;;10.00;9.00;;;17.90;76.20;;;;;;4975406;28;20245;-86
2023/06/27 08:40:54;;;;;;;10.30;9.38;;;18.10;75.70;;;;;;4976988;28;20167;-86
2023/06/27 08:43:20;;;;;;;9.27;8.43;;;18.10;74.70;;;;;;4975317;28;20206;-85
2023/06/27 08:45:47;;;;;;;10.95;10.18;;;18.30;75.30;;;;;;4975612;28;20187;-85
2023/06/27 08:48:15;;;;;;;12.95;10.57;;;18.10;72.10;;;;;;4976532;28;20679;-85
2023/06/27 08:50:42;;;;;;;12.15;10.45;;;18.20;73.90;;;;;;4977038;28;20285;-88
2023/06/27 08:53:10;;;;;;;9.93;8.77;;;18.50;72.20;;;;;;4975897;28;20249;-88
2023/06/27 08:55:56;;;;;;;9.30;8.35;;;18.40;74.30;;;;;;4975386;28;20229;-86
2023/06/27 08:58:26;;;;;;;9.32;8.43;;;18.60;75.70;;;;;;4975035;28;20163;-86
2023/06/27 09:00:53;;;;;;;10.00;7.07;;;18.70;75.70;;;;;;4975266;28;20634;-87
2023/06/27 09:03:20;;;;;;;8.75;7.80;;;18.80;75.70;;;;;;4976061;28;20205;-86
2023/06/27 09:05:47;;;;;;;10.25;8.98;;;18.70;75.10;;;;;;4974940;28;20203;-86
2023/06/27 09:08:13;;;;;;;12.82;9.30;;;18.30;74.60;;;;;;4974915;28;20194;-86
2023/06/27 09:10:40;;;;;;;10.50;8.27;;;18.50;75.00;;;;;;4974995;28;20182;-85
2023/06/27 09:13:06;;;;;;;10.32;8.55;;;18.90;75.60;;;;;;4974859;28;20785;-85
2023/06/27 09:15:31;;;;;;;13.80;10.80;;;19.00;73.40;;;;;;4975265;28;20270;-86
2023/06/27 09:17:57;;;;;;;12.10;10.77;;;19.00;70.60;;;;;;4976266;28;20630;-86
2023/06/27 09:20:23;;;;;;;11.30;10.10;;;18.90;70.70;;;;;;4974714;28;20591;-85
2023/06/27 09:22:50;;;;;;;11.48;10.30;;;19.20;70.70;;;;;;4974576;28;20197;-85
2023/06/27 09:25:17;;;;;;;14.75;9.90;;;19.20;71.10;;;;;;4974441;28;20608;-86
2023/06/27 09:27:43;;;;;;;10.40;9.48;;;19.50;71.40;;;;;;4974615;28;20273;-85
2023/06/27 09:30:10;;;;;;;11.90;10.65;;;19.00;71.00;;;;;;4974482;28;20179;-85
2023/06/27 09:32:52;;;;;;;10.68;9.50;;;18.80;71.60;;;;;;4974316;28;20206;-85
2023/06/27 09:35:18;;;;;;;13.40;10.88;;;19.00;72.90;;;;;;4974442;28;20546;-85
2023/06/27 09:37:44;;;;;;;12.02;10.77;;;19.30;69.50;;;;;;4974343;28;20186;-85
2023/06/27 09:40:17;;;;;;;12.18;9.93;;;19.30;69.70;;;;;;4974419;28;20189;-85
2023/06/27 09:42:53;;;;;;;11.38;10.27;;;19.50;71.30;;;;;;4974472;28;20201;-84
2023/06/27 09:45:20;;;;;;;11.77;10.60;;;19.60;68.60;;;;;;4974606;28;20654;-86
2023/06/27 09:47:52;;;;;;;11.85;10.73;;;19.70;67.60;;;;;;4974530;28;20186;-86
2023/06/27 09:50:24;;;;;;;13.48;11.48;;;19.80;68.60;;;;;;4974136;28;20175;-86
2023/06/27 09:53:02;;;;;;;15.77;12.30;;;19.70;67.10;;;;;;4974154;28;20249;-86
2023/06/27 09:55:28;;;;;;;14.60;12.07;;;19.70;68.50;;;;;;4974216;28;20578;-86
2023/06/27 09:57:56;;;;;;;12.13;11.10;;;19.80;67.60;;;;;;4974201;28;20175;-85
2023/06/27 10:00:23;;;;;;;12.95;11.70;;;20.00;67.50;;;;;;4974434;28;20174;-85
2023/06/27 10:02:51;;;;;;;12.43;11.10;;;20.20;67.90;;;;;;4975460;28;20194;-85
2023/06/27 10:05:19;;;;;;;12.80;11.52;;;20.20;66.50;;;;;;4975289;28;20221;-86
2023/06/27 10:07:46;;;;;;;14.43;12.27;;;20.20;67.10;;;;;;4975283;28;20170;-86
2023/06/27 10:10:12;;;;;;;13.40;11.88;;;20.30;65.80;;;;;;4974024;28;20174;-86
2023/06/27 10:12:39;;;;;;;15.45;12.10;;;20.30;67.40;;;;;;4975380;28;20236;-85
2023/06/27 10:15:08;;;;;;;12.57;11.27;;;20.40;67.90;;;;;;4973916;28;20229;-86
2023/06/27 10:17:34;;;;;;;14.68;13.32;;;20.80;67.20;;;;;;4973784;28;20663;-85
2023/06/27 10:20:00;;;;;;;15.18;13.85;;;20.30;64.70;;;;;;4973719;28;20201;-85
2023/06/27 10:22:30;;;;;;;14.65;13.43;;;20.50;63.80;;;;;;4973655;28;20277;-86
2023/06/27 10:25:01;;;;;;;14.32;12.80;;;20.80;65.50;;;;;;4973795;28;20187;-85
2023/06/27 10:27:26;;;;;;;14.80;13.50;;;20.70;64.90;;;;;;4973552;28;20647;-85
2023/06/27 10:29:52;;;;;;;14.52;13.07;;;20.70;64.00;;;;;;4974947;28;20210;-85
2023/06/27 10:32:19;;;;;;;14.95;13.52;;;20.90;65.70;;;;;;4973318;28;20199;-84
2023/06/27 10:34:45;;;;;;;14.75;13.32;;;20.80;62.70;;;;;;4973485;28;20607;-84
2023/06/27 10:37:24;;;;;;;15.52;14.05;;;20.70;62.90;;;;;;4973193;28;20181;-84
2023/06/27 10:39:58;;;;;;;16.02;14.00;;;20.30;63.30;;;;;;4974745;28;20531;-84
2023/06/27 10:42:23;;;;;;;13.52;12.18;;;19.90;63.80;;;;;;4973845;28;20237;-86
2023/06/27 10:45:01;;;;;;;13.50;12.40;;;19.50;68.30;;;;;;4973551;28;20183;-84
2023/06/27 10:47:47;;;;;;;14.68;13.50;;;19.80;68.20;;;;;;4975015;28;20163;-86
2023/06/27 10:50:21;;;;;;;13.80;12.50;;;19.20;63.80;;;;;;4974061;28;20183;-86
2023/06/27 10:53:01;;;;;;;14.60;13.23;;;18.60;68.50;;;;;;4973871;28;20210;-86
2023/06/27 10:55:29;;;;;;;11.95;11.02;;;18.80;69.20;;;;;;4975251;28;20707;-86
2023/06/27 10:58:09;;;;;;;17.52;10.18;;;19.50;69.20;;;;;;4973381;28;20174;-86
2023/06/27 11:00:40;;;;;;;14.77;11.00;;;19.90;70.50;;;;;;4973475;28;20166;-86
2023/06/27 11:03:08;;;;;;;12.55;11.45;;;20.30;69.20;;;;;;4974910;28;20323;-86
2023/06/27 11:05:47;;;;;;;12.88;11.55;;;20.10;69.20;;;;;;4973602;28;20178;-86
2023/06/27 11:08:17;;;;;;;12.25;10.63;;;19.80;69.40;;;;;;4973331;28;20166;-86
2023/06/27 11:11:02;;;;;;;11.45;8.82;;;19.30;72.50;;;;;;4974495;28;20163;-86
2023/06/27 11:13:29;;;;;;;10.93;8.50;;;18.70;75.50;;;;;;4974417;28;20681;-86
2023/06/27 11:15:55;;;;;;;14.57;7.63;;;18.40;76.10;;;;;;4973295;28;20178;-87
2023/06/27 11:18:25;;;;;;;8.77;6.75;;;17.70;79.10;;;;;;4974290;28;20167;-86
2023/06/27 11:20:50;;;;;;;17.30;6.30;;;17.40;80.70;;;;;;4974473;28;20194;-86
2023/06/27 11:23:17;;;;;;;11.30;6.25;;;17.20;81.60;;;;;;4974199;28;20218;-85
2023/06/27 11:25:44;;;;;;;6.75;6.05;;;17.30;81.30;;;;;;4974338;28;20179;-86
2023/06/27 11:28:16;;;;;;;10.35;5.30;;;17.80;81.60;;;;;;4973575;28;20195;-87
2023/06/27 11:30:42;;;;;;;13.18;5.55;;;18.40;82.30;;;;;;4974643;28;20175;-87
2023/06/27 11:33:08;;;;;;;7.70;6.95;;;18.80;80.60;;;;;;4973486;28;20667;-86
2023/06/27 11:35:35;;;;;;;9.95;8.77;;;19.00;77.40;;;;;;4974491;28;20175;-86
2023/06/27 11:38:04;;;;;;;14.63;9.18;;;19.10;74.10;;;;;;4973864;28;20270;-87
2023/06/27 11:40:30;;;;;;;11.52;10.43;;;19.50;74.30;;;;;;4974269;28;20237;-88
2023/06/27 11:43:01;;;;;;;11.70;10.75;;;19.50;72.20;;;;;;4973697;28;20199;-86
2023/06/27 11:45:27;;;;;;;11.30;9.90;;;19.30;72.40;;;;;;4974031;28;20176;-87
2023/06/27 11:47:53;;;;;;;11.77;9.63;;;19.20;72.10;;;;;;4975884;28;20171;-87
2023/06/27 11:50:19;;;;;;;17.33;10.32;;;19.00;74.00;;;;;;4978326;28;20179;-87
2023/06/27 11:52:47;;;;;;;16.95;9.07;;;18.70;73.70;;;;;;4981294;28;20225;-89
2023/06/27 11:55:13;;;;;;;12.30;8.48;;;17.20;78.90;;;;;;4985472;28;20159;-90
2023/06/27 11:57:48;;;;;;;9.40;6.70;;;16.10;81.20;;;;;;4982548;28;20322;-89
2023/06/27 12:00:19;;;;;;;8.32;5.72;;;15.40;83.00;;;;;;4980773;28;20314;-89
2023/06/27 12:02:56;;;;;;;6.60;5.70;;;15.20;84.30;;;;;;4979042;28;20222;-88
2023/06/27 12:05:24;;;;;;;8.32;5.40;;;15.00;84.50;;;;;;4978080;28;20167;-87
2023/06/27 12:08:01;;;;;;;11.18;5.47;;;15.10;85.10;;;;;;4979339;28;20198;-87
2023/06/27 12:10:28;;;;;;;8.30;5.38;;;15.20;85.70;;;;;;4980136;28;20205;-89
2023/06/27 12:12:54;;;;;;;7.90;5.10;;;15.30;85.80;;;;;;4977545;28;20298;-87
2023/06/27 12:15:20;;;;;;;6.25;5.25;;;15.40;86.00;;;;;;4977444;28;20243;-87
2023/06/27 12:17:59;;;;;;;6.95;4.88;;;15.70;86.50;;;;;;4977756;28;20181;-88
2023/06/27 12:20:26;;;;;;;10.07;5.20;;;15.80;86.50;;;;;;4978017;28;20190;-87
2023/06/27 12:22:52;;;;;;;7.43;4.72;;;16.10;85.30;;;;;;4976173;28;20205;-86
2023/06/27 12:25:18;;;;;;;7.93;4.60;;;16.50;86.50;;;;;;4977686;28;20175;-87
2023/06/27 12:27:43;;;;;;;5.78;4.65;;;17.10;86.30;;;;;;4976885;28;20563;-87
2023/06/27 12:30:10;;;;;;;9.60;4.70;;;17.20;85.70;;;;;;4977400;28;20277;-86
2023/06/27 12:32:36;;;;;;;6.53;5.20;;;17.40;86.20;;;;;;4981258;28;20210;-88
2023/06/27 12:35:02;;;;;;;12.48;5.70;;;17.50;85.30;;;;;;4983608;28;20185;-88
2023/06/27 12:37:29;;;;;;;8.75;5.95;;;17.50;84.80;;;;;;4985633;28;20527;-89